Time,TemperatureF,DewpointF,PressureIn,WindDirection,WindDirectionDegrees,WindSpeedMPH,WindSpeedGustMPH,Humidity,HourlyPrecipIn,Conditions,Clouds,dailyrainin,SoftwareType,DateUTC
2013-06-28 00:12:00,71.0,29.0,29.62,NE,39,4.0,-999.0,21,-99.99,,,-99.99,,2013-06-28 06:12:00,
2013-06-28 00:22:00,72.0,29.0,29.61,NE,43,4.0,-999.0,20,-99.99,,,-99.99,,2013-06-28 06:22:00,
2013-06-28 00:33:00,72.0,29.0,29.61,NE,43,4.0,-999.0,20,-99.99,,,-99.99,,2013-06-28 06:33:00,
2013-06-28 00:42:00,72.0,29.0,29.62,ENE,61,4.0,-999.0,20,-99.99,,,-99.99,,2013-06-28 06:42:00,
2013-06-28 00:52:00,70.0,28.0,29.60,NE,44,3.0,-999.0,21,-99.99,,,-99.99,,2013-06-28 06:52:00,
2013-06-28 01:01:00,70.0,28.0,29.60,NE,44,3.0,-999.0,21,-99.99,,,-99.99,,2013-06-28 07:01:00,
2013-06-28 01:11:00,70.0,29.0,29.62,ENE,77,5.0,-999.0,22,-99.99,,,-99.99,,2013-06-28 07:11:00,
2013-06-28 01:22:00,69.0,29.0,29.62,NE,39,1.0,-999.0,22,-99.99,,,-99.99,,2013-06-28 07:22:00,
2013-06-28 01:33:00,69.0,29.0,29.62,NE,39,1.0,-999.0,22,-99.99,,,-99.99,,2013-06-28 07:33:00,
2013-06-28 01:42:00,69.0,30.0,29.63,NE,39,1.0,-999.0,23,-99.99,,,-99.99,,2013-06-28 07:42:00,
2013-06-28 01:52:00,69.0,30.0,29.61,NE,36,3.0,-999.0,23,-99.99,,,-99.99,,2013-06-28 07:52:00,
2013-06-28 02:01:00,69.0,30.0,29.61,NE,36,3.0,-999.0,23,-99.99,,,-99.99,,2013-06-28 08:01:00,
2013-06-28 02:11:00,69.0,29.0,29.61,NE,44,2.0,-999.0,22,-99.99,,,-99.99,,2013-06-28 08:11:00,
2013-06-28 02:21:00,68.0,29.0,29.61,NE,44,0.0,-999.0,23,-99.99,,,-99.99,,2013-06-28 08:21:00,
2013-06-28 02:33:00,68.0,29.0,29.61,NE,44,0.0,-999.0,23,-99.99,,,-99.99,,2013-06-28 08:33:00,
2013-06-28 02:43:00,65.0,28.0,29.62,NNE,25,1.0,-999.0,25,-99.99,,,-99.99,,2013-06-28 08:43:00,
2013-06-28 02:52:00,67.0,29.0,29.61,NNE,32,2.0,-999.0,24,-99.99,,,-99.99,,2013-06-28 08:52:00,
2013-06-28 03:02:00,67.0,29.0,29.61,NNE,32,2.0,-999.0,24,-99.99,,,-99.99,,2013-06-28 09:02:00,
2013-06-28 03:11:00,64.0,29.0,29.63,NNE,32,1.0,-999.0,27,-99.99,,,-99.99,,2013-06-28 09:11:00,
2013-06-28 03:42:00,63.0,29.0,29.64,NNE,23,2.0,-999.0,27,-99.99,,,-99.99,,2013-06-28 09:42:00,
2013-06-28 03:52:00,62.0,29.0,29.64,NNE,23,0.0,-999.0,29,-99.99,,,-99.99,,2013-06-28 09:52:00,
2013-06-28 04:02:00,62.0,29.0,29.64,NNE,23,0.0,-999.0,29,-99.99,,,-99.99,,2013-06-28 10:02:00,
2013-06-28 04:11:00,62.0,28.0,29.64,NNE,23,1.0,-999.0,27,-99.99,,,-99.99,,2013-06-28 10:11:00,
2013-06-28 04:22:00,62.0,29.0,29.64,NNE,23,1.0,-999.0,28,-99.99,,,-99.99,,2013-06-28 10:22:00,
2013-06-28 04:33:00,62.0,29.0,29.64,NNE,23,1.0,-999.0,28,-99.99,,,-99.99,,2013-06-28 10:33:00,
2013-06-28 04:42:00,61.0,30.0,29.64,NNE,20,1.0,-999.0,31,-99.99,,,-99.99,,2013-06-28 10:42:00,
2013-06-28 04:52:00,60.0,31.0,29.66,NNE,20,0.0,-999.0,33,-99.99,,,-99.99,,2013-06-28 10:52:00,
2013-06-28 05:22:00,61.0,29.0,29.67,NNE,25,1.0,-999.0,30,-99.99,,,-99.99,,2013-06-28 11:22:00,
2013-06-28 05:34:00,61.0,29.0,29.67,NNE,25,1.0,-999.0,30,-99.99,,,-99.99,,2013-06-28 11:34:00,
2013-06-28 05:43:00,63.0,29.0,29.66,NNE,25,2.0,-999.0,28,-99.99,,,-99.99,,2013-06-28 11:43:00,
2013-06-28 05:53:00,61.0,30.0,29.68,NNE,25,0.0,-999.0,31,-99.99,,,-99.99,,2013-06-28 11:53:00,
2013-06-28 06:01:00,61.0,30.0,29.68,NNE,25,0.0,-999.0,31,-99.99,,,-99.99,,2013-06-28 12:01:00,
2013-06-28 06:12:00,62.0,32.0,29.69,NNE,24,1.0,-999.0,32,-99.99,,,-99.99,,2013-06-28 12:12:00,
2013-06-28 06:22:00,61.0,32.0,29.70,NNE,24,1.0,-999.0,34,-99.99,,,-99.99,,2013-06-28 12:22:00,
2013-06-28 06:33:00,61.0,32.0,29.70,NNE,24,1.0,-999.0,34,-99.99,,,-99.99,,2013-06-28 12:33:00,
2013-06-28 06:43:00,61.0,32.0,29.70,NNE,20,1.0,-999.0,34,-99.99,,,-99.99,,2013-06-28 12:43:00,
2013-06-28 06:52:00,63.0,33.0,29.70,NNE,15,1.0,-999.0,33,-99.99,,,-99.99,,2013-06-28 12:52:00,
2013-06-28 07:01:00,63.0,33.0,29.70,NNE,15,1.0,-999.0,33,-99.99,,,-99.99,,2013-06-28 13:01:00,
2013-06-28 07:11:00,65.0,34.0,29.71,North,4,3.0,-999.0,31,-99.99,,,-99.99,,2013-06-28 13:11:00,
2013-06-28 07:23:00,67.0,35.0,29.69,North,0,2.0,-999.0,30,-99.99,,,-99.99,,2013-06-28 13:23:00,
2013-06-28 07:33:00,67.0,35.0,29.69,North,0,2.0,-999.0,30,-99.99,,,-99.99,,2013-06-28 13:33:00,
2013-06-28 07:43:00,69.0,36.0,29.68,North,0,3.0,-999.0,30,-99.99,,,-99.99,,2013-06-28 13:43:00,
2013-06-28 07:53:00,72.0,39.0,29.71,North,3,2.0,-999.0,30,-99.99,,,-99.99,,2013-06-28 13:53:00,
2013-06-28 08:02:00,72.0,39.0,29.71,North,3,2.0,-999.0,30,-99.99,,,-99.99,,2013-06-28 14:02:00,
2013-06-28 08:12:00,72.0,39.0,29.71,NNE,20,2.0,-999.0,30,-99.99,,,-99.99,,2013-06-28 14:12:00,
2013-06-28 08:33:00,77.0,37.0,29.70,NNE,25,3.0,-999.0,24,-99.99,,,-99.99,,2013-06-28 14:33:00,
2013-06-28 09:02:00,82.0,41.0,29.70,NE,45,5.0,-999.0,23,-99.99,,,-99.99,,2013-06-28 15:02:00,
2013-06-28 09:11:00,83.0,40.0,29.69,East,92,6.0,-999.0,22,-99.99,,,-99.99,,2013-06-28 15:11:00,
2013-06-28 09:24:00,84.0,42.0,29.69,ENE,63,6.0,-999.0,23,-99.99,,,-99.99,,2013-06-28 15:24:00,
2013-06-28 09:34:00,84.0,42.0,29.69,ENE,63,6.0,-999.0,23,-99.99,,,-99.99,,2013-06-28 15:34:00,
2013-06-28 09:43:00,85.0,42.0,29.68,East,81,5.0,-999.0,22,-99.99,,,-99.99,,2013-06-28 15:43:00,
2013-06-28 09:52:00,86.0,41.0,29.73,NE,53,6.0,-999.0,21,-99.99,,,-99.99,,2013-06-28 15:52:00,
2013-06-28 10:01:00,86.0,41.0,29.73,NE,53,6.0,-999.0,21,-99.99,,,-99.99,,2013-06-28 16:01:00,
2013-06-28 10:11:00,87.0,44.0,29.72,East,81,6.0,-999.0,22,-99.99,,,-99.99,,2013-06-28 16:11:00,
2013-06-28 10:24:00,88.0,42.0,29.71,East,80,5.0,-999.0,20,-99.99,,,-99.99,,2013-06-28 16:24:00,
2013-06-28 10:33:00,88.0,42.0,29.71,East,80,5.0,-999.0,20,-99.99,,,-99.99,,2013-06-28 16:33:00,
2013-06-28 10:44:00,88.0,39.0,29.71,ESE,116,7.0,-999.0,18,-99.99,,,-99.99,,2013-06-28 16:44:00,
2013-06-28 11:02:00,89.0,40.0,29.73,ENE,78,4.0,-999.0,18,-99.99,,,-99.99,,2013-06-28 17:02:00,
2013-06-28 11:11:00,90.0,41.0,29.71,East,101,5.0,-999.0,18,-99.99,,,-99.99,,2013-06-28 17:11:00,
2013-06-28 11:22:00,90.0,41.0,29.71,East,101,5.0,-999.0,18,-99.99,,,-99.99,,2013-06-28 17:22:00,
2013-06-28 11:33:00,91.0,42.0,29.72,SE,145,5.0,-999.0,18,-99.99,,,-99.99,,2013-06-28 17:33:00,
2013-06-28 11:44:00,91.0,40.0,29.70,NE,46,4.0,-999.0,17,-99.99,,,-99.99,,2013-06-28 17:44:00,
2013-06-28 11:52:00,92.0,39.0,29.69,South,172,3.0,-999.0,16,-99.99,,,-99.99,,2013-06-28 17:52:00,
2013-06-28 12:02:00,92.0,39.0,29.69,South,172,3.0,-999.0,16,-99.99,,,-99.99,,2013-06-28 18:02:00,
2013-06-28 12:11:00,92.0,38.0,29.67,SSE,167,2.0,-999.0,15,-99.99,,,-99.99,,2013-06-28 18:11:00,
2013-06-28 12:22:00,92.0,38.0,29.67,SSE,167,2.0,-999.0,15,-99.99,,,-99.99,,2013-06-28 18:22:00,
2013-06-28 12:33:00,93.0,38.0,29.68,ESE,103,3.0,-999.0,15,-99.99,,,-99.99,,2013-06-28 18:33:00,
2013-06-28 12:43:00,94.0,38.0,29.66,South,190,3.0,-999.0,14,-99.99,,,-99.99,,2013-06-28 18:43:00,
2013-06-28 12:52:00,94.0,38.0,29.66,South,190,3.0,-999.0,14,-99.99,,,-99.99,,2013-06-28 18:52:00,
2013-06-28 13:01:00,96.0,35.0,29.66,SSW,194,2.0,-999.0,12,-99.99,,,-99.99,,2013-06-28 19:01:00,
2013-06-28 13:11:00,96.0,37.0,29.65,SSW,212,3.0,-999.0,13,-99.99,,,-99.99,,2013-06-28 19:11:00,
2013-06-28 13:22:00,96.0,37.0,29.65,SSW,212,3.0,-999.0,13,-99.99,,,-99.99,,2013-06-28 19:22:00,
2013-06-28 13:33:00,97.0,36.0,29.65,East,94,2.0,-999.0,12,-99.99,,,-99.99,,2013-06-28 19:33:00,
2013-06-28 13:43:00,97.0,36.0,29.63,SE,135,2.0,-999.0,12,-99.99,,,-99.99,,2013-06-28 19:43:00,
2013-06-28 13:53:00,97.0,36.0,29.63,SE,135,2.0,-999.0,12,-99.99,,,-99.99,,2013-06-28 19:53:00,
2013-06-28 14:02:00,98.0,35.0,29.63,West,276,1.0,-999.0,11,-99.99,,,-99.99,,2013-06-28 20:02:00,
2013-06-28 14:11:00,98.0,35.0,29.62,SW,232,1.0,-999.0,11,-99.99,,,-99.99,,2013-06-28 20:11:00,
2013-06-28 14:22:00,98.0,35.0,29.62,SW,232,1.0,-999.0,11,-99.99,,,-99.99,,2013-06-28 20:22:00,
2013-06-28 14:33:00,98.0,35.0,29.61,SW,214,2.0,-999.0,11,-99.99,,,-99.99,,2013-06-28 20:33:00,
2013-06-28 14:43:00,99.0,33.0,29.59,SSW,212,2.0,-999.0,10,-99.99,,,-99.99,,2013-06-28 20:43:00,
2013-06-28 14:52:00,99.0,33.0,29.59,SSW,212,2.0,-999.0,10,-99.99,,,-99.99,,2013-06-28 20:52:00,
2013-06-28 15:01:00,99.0,33.0,29.60,East,79,2.0,-999.0,10,-99.99,,,-99.99,,2013-06-28 21:01:00,
2013-06-28 15:11:00,99.0,30.0,29.60,South,186,3.0,-999.0,9,-99.99,,,-99.99,,2013-06-28 21:11:00,
2013-06-28 15:23:00,99.0,30.0,29.60,South,186,3.0,-999.0,9,-99.99,,,-99.99,,2013-06-28 21:23:00,
2013-06-28 15:34:00,102.0,32.0,29.59,NW,311,1.0,-999.0,9,-99.99,,,-99.99,,2013-06-28 21:34:00,
2013-06-28 15:53:00,101.0,32.0,29.57,NNW,329,4.0,-999.0,9,-99.99,,,-99.99,,2013-06-28 21:53:00,
2013-06-28 16:01:00,101.0,32.0,29.57,West,278,1.0,-999.0,9,-99.99,,,-99.99,,2013-06-28 22:01:00,
2013-06-28 16:11:00,100.0,34.0,29.57,ENE,72,3.0,-999.0,10,-99.99,,,-99.99,,2013-06-28 22:11:00,
2013-06-28 16:22:00,100.0,34.0,29.57,ENE,72,3.0,-999.0,10,-99.99,,,-99.99,,2013-06-28 22:22:00,
2013-06-28 16:34:00,97.0,31.0,29.58,NNE,28,5.0,-999.0,10,-99.99,,,-99.99,,2013-06-28 22:34:00,
2013-06-28 17:34:00,88.0,31.0,29.67,NNE,20,17.0,-999.0,13,-99.99,,,-99.99,,2013-06-28 23:34:00,
2013-06-28 17:43:00,88.0,31.0,29.66,WNW,299,21.0,-999.0,13,-99.99,,,-99.99,,2013-06-28 23:43:00,
2013-06-28 17:53:00,88.0,31.0,29.66,WNW,299,21.0,-999.0,13,-99.99,,,-99.99,,2013-06-28 23:53:00,
2013-06-28 18:02:00,89.0,34.0,29.70,SSW,194,10.0,-999.0,14,-99.99,,,-99.99,,2013-06-29 00:02:00,
2013-06-28 18:11:00,88.0,36.0,29.64,NE,46,12.0,-999.0,16,-99.99,,,-99.99,,2013-06-29 00:11:00,
2013-06-28 18:22:00,88.0,36.0,29.64,NE,46,12.0,-999.0,16,-99.99,,,-99.99,,2013-06-29 00:22:00,
2013-06-28 18:33:00,88.0,38.0,29.65,ENE,70,10.0,-999.0,17,-99.99,,,-99.99,,2013-06-29 00:33:00,
2013-06-28 18:42:00,88.0,38.0,29.65,ENE,70,10.0,-999.0,17,-99.99,,,-99.99,,2013-06-29 00:42:00,
2013-06-28 18:52:00,88.0,38.0,29.65,ENE,70,10.0,-999.0,17,-99.99,,,-99.99,,2013-06-29 00:52:00,
2013-06-28 19:01:00,88.0,38.0,29.65,ENE,70,10.0,-999.0,17,-99.99,,,-99.99,,2013-06-29 01:01:00,
2013-06-28 19:11:00,88.0,38.0,29.65,ENE,70,10.0,-999.0,17,-99.99,,,-99.99,,2013-06-29 01:11:00,
2013-06-28 19:52:00,89.0,35.0,29.63,East,82,9.0,-999.0,15,-99.99,,,-99.99,,2013-06-29 01:52:00,
2013-06-28 20:01:00,89.0,35.0,29.63,East,82,9.0,-999.0,15,-99.99,,,-99.99,,2013-06-29 02:01:00,
2013-06-28 20:11:00,89.0,35.0,29.63,East,82,9.0,-999.0,15,-99.99,,,-99.99,,2013-06-29 02:11:00,
2013-06-28 20:21:00,89.0,35.0,29.63,East,82,9.0,-999.0,15,-99.99,,,-99.99,,2013-06-29 02:21:00,
2013-06-28 20:31:00,89.0,35.0,29.63,East,82,9.0,-999.0,15,-99.99,,,-99.99,,2013-06-29 02:31:00,
2013-06-28 23:01:00,78.0,39.0,29.67,NE,41,0.0,-999.0,25,-99.99,,,-99.99,,2013-06-29 05:01:00,
2013-06-28 23:10:00,78.0,39.0,29.67,NE,41,0.0,-999.0,25,-99.99,,,-99.99,,2013-06-29 05:10:00,
2013-06-28 23:21:00,78.0,39.0,29.67,NE,41,0.0,-999.0,25,-99.99,,,-99.99,,2013-06-29 05:21:00,
2013-06-28 23:31:00,78.0,39.0,29.67,NE,41,0.0,-999.0,25,-99.99,,,-99.99,,2013-06-29 05:31:00,
2013-06-28 23:41:00,76.0,41.0,29.65,East,91,0.0,-999.0,28,-99.99,,,-99.99,,2013-06-29 05:41:00,
2013-06-28 23:52:00,76.0,41.0,29.65,East,91,0.0,-999.0,28,-99.99,,,-99.99,,2013-06-29 05:52:00,